Imam Khomeini International Airport
OIIE : now visible

Airfield :











YOU CAN JOIN US ON...

 
LOGIN :

Register | Disclaimer

   EN    FR    IT 

 









Legend :    VFR   Marginal VFR   IFR   Intensive IFR   Very Intensive IFR
Visi :
Ceiling :
>= 8 km
>= 3000ft
5 to 8 km
1000 to 3000 ft
1500m to 5 km
500 to 1000 ft
800 to 1500m
200 to 500 ft
< 800m
< 200 ft
Symbols :   Thunderstorms  Fog  Heavy snow  Heavy precipitations  Wind > 20 kt







- Airport Elevation : 3305 ft
- IATA code : IKA


OIIE - Imam Khomeini International

CURRENT METAR :
  • 210100Z 27008KT CAVOK M02/M06 Q1022

EXPIRED METARs :
  • 210000Z 27008KT CAVOK 00/M05 Q1022
  • 202300Z 29006KT CAVOK 00/M06 Q1023

TAF TAF OIIE
Valid from the 21 at 00:00 until the 22 at 06:00 UTC


202300Z 2100/2206 32008KT 8000 NSC
TEMPO 2107/2112 20014KT
OIIX FIR / Asia



MET'MAP, your aeronautical weather chart ! - Copyright ORBIFLY December 2007 - Disclaimer

ORBIFLY MET'MAP TEAM :

Programming & Development : Alexandra Zaïnal
Concept & Development : Baudouin d'Aumeries
Co-Development & Prog : Marc-Olivier Méhu
Technical & hardware support : Manuel Goepfert

Contact : metmap@orbifly.com




SOURCES & CREDITS :

   NOAA       Earth
Advisory